This is the latest recevied weather packets stored in our database for station/object DC4XK-10. If no packets are shown the sender has not sent any weather packets the latest 10 day(s).
| Time | Temp. | Humidity | Pressure | Rain* | Wind** | Luminosity | Snow |
|---|---|---|---|---|---|---|---|
| 1777384731 | 16.11° C | 37% | 1026.2 hPa | 0 mm | 0 m/s | - | - |
| 1777384131 | 16.11° C | 40% | 1026.3 hPa | 0 mm | 0.45 m/s, 87° | - | - |
| 1777383534 | 16.67° C | 41% | 1026.5 hPa | 0 mm | 0.45 m/s, 25° | - | - |
| 1777382931 | 16.11° C | 41% | 1026.4 hPa | 0 mm | 0 m/s | - | - |
| 1777382331 | 16.11° C | 38% | 1026.1 hPa | 0 mm | 2.24 m/s, 31° | - | - |
| 1777381732 | 15° C | 41% | 1026.4 hPa | 0 mm | 0.89 m/s, 72° | - | - |
| 1777381131 | 16.11° C | 40% | 1026.5 hPa | 0 mm | 2.24 m/s, 321° | - | - |
| 1777380530 | 16.11° C | 40% | 1026.4 hPa | 0 mm | 1.34 m/s, 297° | - | - |
| 1777379931 | 16.11° C | 39% | 1026.3 hPa | 0 mm | 1.79 m/s, 342° | - | - |
| 1777379331 | 15.56° C | 41% | 1026.4 hPa | 0 mm | 1.34 m/s, 50° | - | - |
| 1777378730 | 16.11° C | 39% | 1026.4 hPa | 0 mm | 0.89 m/s, 23° | - | - |
| 1777378131 | 15.56° C | 39% | 1026.3 hPa | 0 mm | 1.79 m/s, 230° | - | - |
| 1777377531 | 15.56° C | 40% | 1026.4 hPa | 0 mm | 0 m/s | - | - |
| 1777376931 | 15.56° C | 39% | 1026.4 hPa | 0 mm | 0 m/s | - | - |
| 1777376331 | 15.56° C | 39% | 1026.4 hPa | 0 mm | 1.79 m/s, 342° | - | - |
| 1777375731 | 16.11° C | 40% | 1026.7 hPa | 0 mm | 0.45 m/s, 174° | - | - |
| 1777375131 | 15° C | 42% | 1026.6 hPa | 0 mm | 0.89 m/s, 320° | - | - |
| 1777374530 | 15.56° C | 39% | 1026.5 hPa | 0 mm | 3.58 m/s, 15° | - | - |
| 1777373931 | 15° C | 44% | 1026.5 hPa | 0 mm | 0 m/s | - | - |
| 1777373333 | 16.67° C | 42% | 1026.5 hPa | 0 mm | 0.89 m/s, 340° | - | - |
| 1777372731 | 15.56° C | 41% | 1026.7 hPa | 0 mm | 0.89 m/s, 14° | - | - |
| 1777372131 | 15.56° C | 47% | 1026.6 hPa | 0 mm | 0.45 m/s, 237° | - | - |
| 1777371534 | 14.44° C | 49% | 1026.3 hPa | 0 mm | 0.89 m/s, 9° | - | - |
| 1777370931 | 13.33° C | 54% | 1026.5 hPa | 0 mm | 0.89 m/s, 209° | - | - |
| 1777370331 | 12.78° C | 55% | 1026.6 hPa | 0 mm | 0.89 m/s, 130° | - | - |
* Rain latest hour (hover to see other rain measurements)
** Current wind speed in m/s (hover to see current wind gust speed)